createdAt,value
2022-11-25T00:06:12.506Z,100303.47
2022-11-25T00:16:19.506Z,100301.03
2022-11-25T00:26:26.051Z,100291.78
2022-11-25T00:36:32.415Z,100277.50
2022-11-25T00:46:37.413Z,100283.03
2022-11-25T00:56:41.262Z,100286.28
2022-11-25T01:06:46.304Z,100291.06
2022-11-25T01:16:51.204Z,100295.22
2022-11-25T01:26:56.819Z,100292.84
2022-11-25T01:37:00.490Z,100296.63
2022-11-25T01:47:13.012Z,100301.19
2022-11-25T01:57:23.074Z,100311.63
2022-11-25T02:07:35.027Z,100296.84
2022-11-25T02:17:39.124Z,100291.91
2022-11-25T02:27:45.788Z,100291.03
2022-11-25T02:37:49.421Z,100285.53
2022-11-25T02:47:54.602Z,100269.75
2022-11-25T02:57:58.290Z,100278.22
2022-11-25T03:08:04.597Z,100262.75
2022-11-25T03:18:09.722Z,100275.81
2022-11-25T03:28:15.114Z,100282.03
2022-11-25T03:38:19.035Z,100269.09
2022-11-25T03:48:24.000Z,100273.66
2022-11-25T03:58:27.872Z,100270.84
2022-11-25T04:08:32.972Z,100270.09
2022-11-25T04:18:36.633Z,100261.13
2022-11-25T04:28:41.701Z,100274.00
2022-11-25T04:38:45.469Z,100266.34
2022-11-25T04:48:50.728Z,100272.28
2022-11-25T04:59:11.934Z,100273.38
2022-11-25T05:09:17.136Z,100252.88
2022-11-25T05:19:20.975Z,100269.47
2022-11-25T05:29:26.108Z,100275.47
2022-11-25T05:39:29.837Z,100271.19
2022-11-25T05:49:35.425Z,100274.06
2022-11-25T05:59:39.129Z,100270.56
2022-11-25T06:09:44.631Z,100271.34
2022-11-25T06:19:48.441Z,100300.94
2022-11-25T06:29:53.434Z,100314.03
2022-11-25T06:39:57.086Z,100330.31
2022-11-25T06:50:02.116Z,100323.06
2022-11-25T07:00:07.838Z,100336.69
2022-11-25T07:10:13.268Z,100344.41
2022-11-25T07:20:17.210Z,100360.50
2022-11-25T07:31:21.779Z,100357.03
2022-11-25T07:40:46.353Z,100361.75
2022-11-25T07:50:52.521Z,100372.81
2022-11-25T08:00:56.369Z,100376.28
2022-11-25T08:11:01.737Z,100392.06
2022-11-25T08:21:09.637Z,100384.81
2022-11-25T08:31:18.191Z,100388.34
2022-11-25T08:41:25.316Z,100378.78
2022-11-25T08:51:34.918Z,100396.16
2022-11-25T09:01:38.691Z,100401.91
2022-11-25T09:11:44.148Z,100397.56
2022-11-25T09:21:48.368Z,100417.88
2022-11-25T09:31:55.102Z,100443.47
2022-11-25T09:42:34.066Z,100448.38
2022-11-25T09:52:59.057Z,100450.78
2022-11-25T10:03:10.686Z,100457.72
2022-11-25T10:13:21.623Z,100457.44
2022-11-25T10:23:32.194Z,100463.72
2022-11-25T10:33:41.159Z,100463.03
2022-11-25T10:43:47.152Z,100460.97
2022-11-25T10:54:27.590Z,100486.06
2022-11-25T11:04:31.950Z,100478.03
2022-11-25T11:14:37.395Z,100484.13
2022-11-25T11:24:42.809Z,100498.16
2022-11-25T11:35:04.504Z,100498.28
2022-11-25T11:45:57.674Z,100490.53
2022-11-25T11:56:34.328Z,100496.63
2022-11-25T12:06:38.229Z,100514.78
2022-11-25T12:16:48.510Z,100518.47
2022-11-25T12:26:59.504Z,100515.88
2022-11-25T12:37:15.310Z,100524.31
2022-11-25T12:47:19.148Z,100521.63
2022-11-25T12:58:16.038Z,100540.41
2022-11-25T13:08:38.085Z,100555.44
2022-11-25T13:18:45.613Z,100569.94
2022-11-25T13:28:51.526Z,100587.00
2022-11-25T13:39:15.200Z,100602.31
2022-11-25T13:49:33.558Z,100613.81
2022-11-25T13:59:51.441Z,100623.31
2022-11-25T14:10:16.690Z,100641.69
2022-11-25T14:20:37.490Z,100640.97
2022-11-25T14:30:51.856Z,100649.06
2022-11-25T14:41:05.485Z,100654.50
2022-11-25T14:51:11.850Z,100677.06
2022-11-25T15:01:22.355Z,100690.50
2022-11-25T15:11:31.500Z,100695.69
2022-11-25T15:22:00.072Z,100702.06
2022-11-25T15:32:04.114Z,100712.78
2022-11-25T15:42:18.405Z,100722.66
2022-11-25T15:52:27.301Z,100732.78
2022-11-25T16:02:39.794Z,100750.66
2022-11-25T16:12:43.658Z,100775.78
2022-11-25T16:22:48.795Z,100784.06
2022-11-25T16:32:52.559Z,100788.41
2022-11-25T16:42:57.737Z,100803.53
2022-11-25T16:53:01.490Z,100819.44
2022-11-25T17:03:10.855Z,100843.69
2022-11-25T17:13:21.745Z,100858.81
2022-11-25T17:23:28.745Z,100876.03
2022-11-25T17:33:33.943Z,100874.84
2022-11-25T17:43:39.732Z,100892.56
2022-11-25T17:53:43.544Z,100906.78
2022-11-25T18:03:50.710Z,100918.41
2022-11-25T18:13:55.753Z,100935.38
2022-11-25T18:24:01.038Z,100947.47
2022-11-25T18:34:04.839Z,100968.41
2022-11-25T18:44:25.803Z,100975.88
2022-11-25T18:54:30.162Z,100994.97
2022-11-25T19:04:35.423Z,101007.84
2022-11-25T19:14:42.074Z,101033.16
2022-11-25T19:24:47.275Z,101062.03
2022-11-25T19:34:53.983Z,101079.97
2022-11-25T19:44:59.208Z,101093.53
2022-11-25T19:55:03.142Z,101105.56
2022-11-25T20:05:10.343Z,101112.06
2022-11-25T20:15:14.143Z,101136.00
2022-11-25T20:25:20.181Z,101155.94
2022-11-25T20:35:26.390Z,101167.00
2022-11-25T20:45:31.695Z,101184.63
2022-11-25T20:55:35.431Z,101203.13
2022-11-25T21:05:40.607Z,101227.44
2022-11-25T21:15:46.046Z,101241.53
2022-11-25T21:25:51.909Z,101247.94
2022-11-25T21:35:56.437Z,101242.97
2022-11-25T21:46:08.648Z,101268.56
2022-11-25T21:56:22.047Z,101267.28
2022-11-25T22:06:29.757Z,101280.72
2022-11-25T22:16:37.381Z,101287.59
2022-11-25T22:26:42.704Z,101306.69
2022-11-25T22:36:46.915Z,101308.97
2022-11-25T22:46:52.494Z,101320.69
2022-11-25T22:56:56.744Z,101336.19
2022-11-25T23:07:01.765Z,101343.81
2022-11-25T23:17:05.616Z,101354.31
2022-11-25T23:27:10.622Z,101365.50
2022-11-25T23:37:15.559Z,101369.72
2022-11-25T23:47:23.637Z,101385.06
2022-11-25T23:57:33.380Z,101377.50
